createdAt,value
2019-05-20T00:01:04.023Z,97257.93
2019-05-20T00:03:32.235Z,97264.30
2019-05-20T00:06:00.617Z,97257.93
2019-05-20T00:08:28.888Z,97246.26
2019-05-20T00:10:57.446Z,97255.15
2019-05-20T00:13:25.659Z,97241.58
2019-05-20T00:15:54.642Z,97246.53
2019-05-20T00:18:22.855Z,97249.73
2019-05-20T00:20:51.057Z,97256.16
2019-05-20T00:23:19.271Z,97260.53
2019-05-20T00:25:47.467Z,97258.99
2019-05-20T00:28:15.684Z,97248.98
2019-05-20T00:30:44.174Z,97244.36
2019-05-20T00:33:12.393Z,97245.58
2019-05-20T00:35:40.587Z,97240.04
2019-05-20T00:38:09.360Z,97240.15
2019-05-20T00:40:37.898Z,97235.92
2019-05-20T00:43:06.106Z,97236.34
2019-05-20T00:45:34.706Z,97237.67
2019-05-20T00:48:03.756Z,97245.67
2019-05-20T00:50:33.412Z,97245.45
2019-05-20T00:53:01.616Z,97245.16
2019-05-20T00:55:30.212Z,97254.33
2019-05-20T00:57:59.005Z,97260.94
2019-05-20T01:00:27.300Z,97263.30
2019-05-20T01:02:57.161Z,97251.14
2019-05-20T01:05:25.494Z,97253.62
2019-05-20T01:07:53.733Z,97258.41
2019-05-20T01:10:22.524Z,97256.63
2019-05-20T01:12:51.497Z,97259.98
2019-05-20T01:15:19.720Z,97268.20
2019-05-20T01:17:47.924Z,97272.13
2019-05-20T01:20:16.130Z,97274.55
2019-05-20T01:22:44.763Z,97263.10
2019-05-20T01:25:13.042Z,97256.48
2019-05-20T01:27:41.524Z,97255.31
2019-05-20T01:30:10.480Z,97252.88
2019-05-20T01:32:38.683Z,97259.78
2019-05-20T01:35:07.685Z,97270.11
2019-05-20T01:37:35.893Z,97272.69
2019-05-20T01:40:04.271Z,97268.73
2019-05-20T01:42:32.470Z,97268.17
2019-05-20T01:45:00.697Z,97265.00
2019-05-20T01:47:29.371Z,97261.27
2019-05-20T01:49:58.909Z,97257.22
2019-05-20T01:52:27.123Z,97254.04
2019-05-20T01:54:55.338Z,97243.22
2019-05-20T01:57:23.561Z,97238.10
2019-05-20T01:59:52.096Z,97230.41
2019-05-20T02:02:20.313Z,97239.06
2019-05-20T02:04:48.521Z,97245.77
2019-05-20T02:07:17.305Z,97248.09
2019-05-20T02:09:46.284Z,97246.50
2019-05-20T02:12:14.497Z,97245.17
2019-05-20T02:15:02.575Z,97248.99
2019-05-20T02:17:30.783Z,97244.52
2019-05-20T02:19:59.849Z,97246.49
2019-05-20T02:22:28.066Z,97242.66
2019-05-20T02:24:56.305Z,97243.50
2019-05-20T02:27:25.760Z,97242.64
2019-05-20T02:29:53.959Z,97246.31
2019-05-20T02:32:22.171Z,97242.05
2019-05-20T02:34:50.944Z,97254.69
2019-05-20T02:37:19.166Z,97253.20
2019-05-20T02:39:47.366Z,97247.55
2019-05-20T02:42:15.580Z,97249.73
2019-05-20T02:44:44.557Z,97248.87
2019-05-20T02:47:12.786Z,97253.33
2019-05-20T02:49:40.987Z,97258.84
2019-05-20T02:52:09.205Z,97263.08
2019-05-20T02:54:37.980Z,97271.80
2019-05-20T02:57:06.215Z,97269.95
2019-05-20T02:59:34.392Z,97274.44
2019-05-20T03:02:03.612Z,97276.86
2019-05-20T03:04:31.809Z,97274.19
2019-05-20T03:07:00.029Z,97280.70
2019-05-20T03:09:28.236Z,97274.31
2019-05-20T03:11:56.479Z,97273.47
2019-05-20T03:14:24.691Z,97273.91
2019-05-20T03:16:52.878Z,97273.84
2019-05-20T03:19:21.091Z,97269.98
2019-05-20T03:21:49.297Z,97270.33
2019-05-20T03:24:17.503Z,97262.39
2019-05-20T03:26:45.706Z,97258.58
2019-05-20T03:29:14.097Z,97258.58
2019-05-20T03:31:42.293Z,97247.85
2019-05-20T03:34:38.925Z,97244.08
2019-05-20T03:36:40.432Z,97252.77
2019-05-20T03:39:08.646Z,97255.56
2019-05-20T03:41:37.313Z,97255.14
2019-05-20T03:44:05.524Z,97253.55
2019-05-20T03:46:33.724Z,97261.38
2019-05-20T03:49:01.946Z,97266.62
2019-05-20T03:51:30.143Z,97268.05
2019-05-20T03:53:58.361Z,97269.83
2019-05-20T03:56:26.566Z,97262.55
2019-05-20T03:58:54.810Z,97267.30
2019-05-20T04:01:23.017Z,97273.42
2019-05-20T04:03:51.231Z,97274.05
2019-05-20T04:06:19.436Z,97273.93
2019-05-20T04:08:47.650Z,97267.44
2019-05-20T04:11:15.859Z,97268.92
2019-05-20T04:13:44.072Z,97272.92
2019-05-20T04:16:12.273Z,97276.06
2019-05-20T04:18:40.490Z,97274.59
2019-05-20T04:21:09.007Z,97277.61
2019-05-20T04:23:37.314Z,97273.47
2019-05-20T04:26:05.515Z,97281.02
2019-05-20T04:28:33.742Z,97284.94
2019-05-20T04:31:01.970Z,97280.81
2019-05-20T04:33:30.832Z,97282.09
2019-05-20T04:35:59.048Z,97272.24
2019-05-20T04:38:27.489Z,97269.03
2019-05-20T04:40:55.705Z,97264.22
2019-05-20T04:43:23.901Z,97267.13
2019-05-20T04:45:52.293Z,97265.23
2019-05-20T04:48:20.800Z,97269.03
2019-05-20T04:50:49.789Z,97265.98
2019-05-20T04:53:18.761Z,97266.78
2019-05-20T04:55:47.649Z,97270.47
2019-05-20T04:58:15.856Z,97267.65
2019-05-20T05:00:54.607Z,97272.77
2019-05-20T05:03:22.987Z,97272.30
2019-05-20T05:05:51.184Z,97265.59
2019-05-20T05:08:22.048Z,97272.41
2019-05-20T05:10:50.257Z,97268.71
2019-05-20T05:13:18.455Z,97275.44
2019-05-20T05:15:46.677Z,97285.09
2019-05-20T05:18:14.963Z,97289.02
2019-05-20T05:20:44.410Z,97293.09
2019-05-20T05:23:12.612Z,97298.36
2019-05-20T05:25:40.824Z,97305.30
2019-05-20T05:28:09.034Z,97301.63
2019-05-20T05:30:37.573Z,97304.14
2019-05-20T05:33:05.772Z,97300.58
2019-05-20T05:35:33.977Z,97307.09
2019-05-20T05:38:02.902Z,97304.82
2019-05-20T05:40:31.864Z,97306.06
2019-05-20T05:43:00.075Z,97310.66
2019-05-20T05:45:32.512Z,97306.23
2019-05-20T05:48:00.805Z,97308.06
2019-05-20T05:50:29.076Z,97301.46
2019-05-20T05:52:57.299Z,97302.00
2019-05-20T05:55:25.768Z,97303.36
2019-05-20T05:57:53.995Z,97294.41
2019-05-20T06:00:22.254Z,97295.30
2019-05-20T06:02:50.469Z,97304.58
2019-05-20T06:05:18.674Z,97302.56
2019-05-20T06:07:47.579Z,97309.48
2019-05-20T06:10:15.752Z,97312.81
2019-05-20T06:12:44.754Z,97313.36
2019-05-20T06:15:12.961Z,97319.08
2019-05-20T06:17:41.171Z,97317.97
2019-05-20T06:20:09.388Z,97323.36
2019-05-20T06:22:38.359Z,97319.41
2019-05-20T06:25:06.633Z,97323.20
2019-05-20T06:27:34.840Z,97316.77
2019-05-20T06:30:05.148Z,97319.61
2019-05-20T06:32:32.817Z,97331.45
2019-05-20T06:35:00.973Z,97338.47
2019-05-20T06:37:36.792Z,97328.54
2019-05-20T06:40:05.163Z,97333.75
2019-05-20T06:42:33.362Z,97337.55
2019-05-20T06:45:01.585Z,97336.07
2019-05-20T06:47:29.864Z,97326.83
2019-05-20T06:49:58.086Z,97325.18
2019-05-20T06:52:35.388Z,97322.91
2019-05-20T06:54:56.239Z,97329.78
2019-05-20T06:57:24.449Z,97325.42
2019-05-20T06:59:52.660Z,97327.41
2019-05-20T07:02:20.867Z,97324.95
2019-05-20T07:04:49.081Z,97324.95
2019-05-20T07:07:21.187Z,97316.70
2019-05-20T07:09:48.007Z,97323.81
2019-05-20T07:12:16.203Z,97325.48
2019-05-20T07:14:44.429Z,97330.97
2019-05-20T07:17:12.636Z,97333.17
2019-05-20T07:19:40.850Z,97334.84
2019-05-20T07:22:09.055Z,97329.84
2019-05-20T07:24:37.283Z,97329.59
2019-05-20T07:27:05.493Z,97341.14
2019-05-20T07:29:34.461Z,97332.91
2019-05-20T07:32:03.625Z,97342.52
2019-05-20T07:34:31.864Z,97344.39
2019-05-20T07:37:03.768Z,97341.89
2019-05-20T07:39:30.017Z,97339.98
2019-05-20T07:41:58.219Z,97344.05
2019-05-20T07:44:26.986Z,97339.52
2019-05-20T07:46:55.224Z,97339.56
2019-05-20T07:49:23.423Z,97339.29
2019-05-20T07:51:51.643Z,97339.08
2019-05-20T07:54:19.842Z,97344.38
2019-05-20T07:56:48.064Z,97344.06
2019-05-20T07:59:17.031Z,97336.89
2019-05-20T08:01:45.253Z,97344.09
2019-05-20T08:04:13.546Z,97344.09
2019-05-20T08:06:42.041Z,97342.70
2019-05-20T08:09:10.227Z,97344.90
2019-05-20T08:11:38.472Z,97344.67
2019-05-20T08:14:06.673Z,97344.92
2019-05-20T08:16:34.895Z,97345.19
2019-05-20T08:19:03.112Z,97349.03
2019-05-20T08:21:32.081Z,97349.03
2019-05-20T08:24:00.296Z,97357.50
2019-05-20T08:26:28.544Z,97353.05
2019-05-20T08:28:56.777Z,97353.00
2019-05-20T08:31:25.005Z,97355.91
2019-05-20T08:33:53.467Z,97352.55
2019-05-20T08:36:22.343Z,97360.17
2019-05-20T08:38:50.546Z,97359.97
2019-05-20T08:41:18.740Z,97365.28
2019-05-20T08:43:46.952Z,97372.83
2019-05-20T08:46:15.153Z,97361.68
2019-05-20T08:48:43.373Z,97373.75
2019-05-20T08:51:12.339Z,97369.69
2019-05-20T08:53:40.585Z,97369.80
2019-05-20T08:56:08.859Z,97377.27
2019-05-20T08:58:37.048Z,97375.59
2019-05-20T09:01:05.848Z,97375.03
2019-05-20T09:03:34.454Z,97377.23
2019-05-20T09:06:02.742Z,97378.91
2019-05-20T09:08:31.404Z,97377.58
2019-05-20T09:10:59.866Z,97380.77
2019-05-20T09:13:28.670Z,97381.61
2019-05-20T09:15:56.860Z,97383.02
2019-05-20T09:18:25.428Z,97375.34
2019-05-20T09:20:53.623Z,97386.10
2019-05-20T09:23:22.319Z,97385.00
2019-05-20T09:25:50.507Z,97377.02
2019-05-20T09:28:18.752Z,97381.42
2019-05-20T09:30:46.946Z,97387.73
2019-05-20T09:33:16.017Z,97380.82
2019-05-20T09:35:44.394Z,97381.84
2019-05-20T09:38:19.966Z,97379.94
2019-05-20T09:40:47.841Z,97392.53
2019-05-20T09:43:16.050Z,97392.48
2019-05-20T09:45:44.266Z,97390.84
2019-05-20T09:48:13.607Z,97384.77
2019-05-20T09:50:42.588Z,97388.22
2019-05-20T09:53:10.811Z,97383.54
2019-05-20T09:55:39.772Z,97387.04
2019-05-20T09:58:07.983Z,97371.91
2019-05-20T10:00:36.209Z,97385.72
2019-05-20T10:03:05.290Z,97385.81
2019-05-20T10:05:37.195Z,97379.75
2019-05-20T10:08:04.194Z,97382.06
2019-05-20T10:10:32.409Z,97382.38
2019-05-20T10:13:01.489Z,97384.67
2019-05-20T10:15:30.032Z,97384.03
2019-05-20T10:17:58.556Z,97381.95
2019-05-20T10:20:26.756Z,97385.51
2019-05-20T10:22:55.101Z,97395.27
2019-05-20T10:25:23.375Z,97388.80
2019-05-20T10:27:51.519Z,97391.59
2019-05-20T10:30:19.733Z,97398.05
2019-05-20T10:32:47.937Z,97399.09
2019-05-20T10:35:16.164Z,97401.47
2019-05-20T10:37:44.365Z,97399.90
2019-05-20T10:40:12.595Z,97395.19
2019-05-20T10:42:40.794Z,97392.02
2019-05-20T10:45:09.012Z,97397.14
2019-05-20T10:47:37.207Z,97393.31
2019-05-20T10:50:06.727Z,97399.03
2019-05-20T10:52:34.936Z,97396.92
2019-05-20T10:55:03.904Z,97389.33
2019-05-20T10:57:32.127Z,97395.31
2019-05-20T11:00:00.331Z,97400.64
2019-05-20T11:02:31.295Z,97389.02
2019-05-20T11:04:58.510Z,97382.67
2019-05-20T11:07:26.716Z,97388.67
2019-05-20T11:09:54.926Z,97386.95
2019-05-20T11:12:23.931Z,97380.55
2019-05-20T11:14:52.136Z,97381.00
2019-05-20T11:17:20.354Z,97379.95
2019-05-20T11:19:48.555Z,97373.79
2019-05-20T11:22:16.781Z,97386.33
2019-05-20T11:24:45.280Z,97380.92
2019-05-20T11:27:13.491Z,97372.23
2019-05-20T11:29:42.041Z,97368.95
2019-05-20T11:32:10.272Z,97371.93
2019-05-20T11:34:38.563Z,97375.34
2019-05-20T11:37:06.805Z,97379.08
2019-05-20T11:39:35.034Z,97373.80
2019-05-20T11:42:03.242Z,97377.99
2019-05-20T11:44:31.441Z,97376.01
2019-05-20T11:46:59.692Z,97375.97
2019-05-20T11:49:29.322Z,97372.34
2019-05-20T11:51:57.685Z,97367.74
2019-05-20T11:54:25.900Z,97369.05
2019-05-20T11:56:54.105Z,97367.83
2019-05-20T11:59:22.315Z,97375.88
2019-05-20T12:01:51.297Z,97374.42
2019-05-20T12:04:19.506Z,97377.38
2019-05-20T12:06:47.765Z,97380.16
2019-05-20T12:09:15.973Z,97385.16
2019-05-20T12:11:44.192Z,97377.08
2019-05-20T12:14:12.959Z,97387.02
2019-05-20T12:16:41.167Z,97379.94
2019-05-20T12:19:09.385Z,97377.78
2019-05-20T12:21:37.593Z,97372.26
2019-05-20T12:24:05.811Z,97359.38
2019-05-20T12:26:34.020Z,97353.64
2019-05-20T12:29:02.244Z,97351.16
2019-05-20T12:31:31.779Z,97338.27
2019-05-20T12:34:00.672Z,97349.22
2019-05-20T12:36:28.880Z,97347.54
2019-05-20T12:38:57.098Z,97344.70
2019-05-20T12:41:25.512Z,97337.02
2019-05-20T12:44:11.073Z,97336.89
2019-05-20T12:46:23.713Z,97327.25
2019-05-20T12:48:51.955Z,97316.98
2019-05-20T12:51:20.142Z,97317.66
2019-05-20T12:53:48.351Z,97322.31
2019-05-20T12:56:19.373Z,97325.70
2019-05-20T12:58:46.522Z,97312.81
2019-05-20T13:01:15.180Z,97321.25
2019-05-20T13:03:43.404Z,97328.70
2019-05-20T13:06:12.389Z,97325.91
2019-05-20T13:08:40.582Z,97320.63
2019-05-20T13:11:08.803Z,97327.78
2019-05-20T13:13:36.996Z,97322.89
2019-05-20T13:16:05.208Z,97327.93
2019-05-20T13:18:33.409Z,97329.56
2019-05-20T13:21:01.664Z,97336.34
2019-05-20T13:23:29.895Z,97331.36
2019-05-20T13:25:58.119Z,97332.20
2019-05-20T13:28:26.630Z,97328.19
2019-05-20T13:30:55.636Z,97327.52
2019-05-20T13:33:23.821Z,97323.70
2019-05-20T13:35:52.604Z,97327.55
2019-05-20T13:38:20.809Z,97320.72
2019-05-20T13:40:49.024Z,97322.41
2019-05-20T13:43:17.228Z,97319.41
2019-05-20T13:45:47.989Z,97321.05
2019-05-20T13:48:15.385Z,97309.70
2019-05-20T13:50:43.758Z,97314.78
2019-05-20T13:53:12.055Z,97314.66
2019-05-20T13:55:40.336Z,97309.75
2019-05-20T13:58:08.548Z,97307.47
2019-05-20T14:00:36.747Z,97308.03
2019-05-20T14:03:04.963Z,97303.31
2019-05-20T14:05:33.169Z,97310.75
2019-05-20T14:08:01.405Z,97304.02
2019-05-20T14:10:29.582Z,97291.39
2019-05-20T14:12:58.473Z,97292.20
2019-05-20T14:15:26.686Z,97290.27
2019-05-20T14:17:54.937Z,97292.22
2019-05-20T14:20:23.161Z,97290.92
2019-05-20T14:22:51.490Z,97285.48
2019-05-20T14:25:19.699Z,97282.70
2019-05-20T14:27:47.908Z,97283.95
2019-05-20T14:30:16.104Z,97276.12
2019-05-20T14:32:44.617Z,97275.98
2019-05-20T14:35:12.806Z,97275.13
2019-05-20T14:37:41.595Z,97276.80
2019-05-20T14:40:10.056Z,97270.52
2019-05-20T14:42:38.331Z,97261.83
2019-05-20T14:45:06.824Z,97268.31
2019-05-20T14:47:35.036Z,97274.48
2019-05-20T14:50:05.110Z,97272.50
2019-05-20T14:52:33.340Z,97260.46
2019-05-20T14:55:01.549Z,97265.51
2019-05-20T14:57:29.768Z,97255.30
2019-05-20T14:59:57.991Z,97258.74
2019-05-20T15:02:30.529Z,97248.75
2019-05-20T15:04:56.121Z,97249.55
2019-05-20T15:07:30.208Z,97264.13
2019-05-20T15:09:54.284Z,97279.25
2019-05-20T15:12:23.167Z,97278.59
2019-05-20T15:14:51.368Z,97276.55
2019-05-20T15:17:19.577Z,97277.07
2019-05-20T15:19:47.792Z,97293.30
2019-05-20T15:22:16.003Z,97335.84
2019-05-20T15:24:44.220Z,97325.63
2019-05-20T15:27:12.502Z,97325.52
2019-05-20T15:29:40.805Z,97310.92
2019-05-20T15:32:09.005Z,97310.92
2019-05-20T15:34:37.213Z,97309.81
2019-05-20T15:37:05.939Z,97302.34
2019-05-20T15:39:34.147Z,97287.73
2019-05-20T15:42:02.674Z,97287.09
2019-05-20T15:44:30.928Z,97299.06
2019-05-20T15:46:59.274Z,97295.68
2019-05-20T15:49:28.231Z,97297.56
2019-05-20T15:51:56.428Z,97292.48
2019-05-20T15:54:24.709Z,97284.20
2019-05-20T15:56:52.910Z,97286.80
2019-05-20T15:59:21.116Z,97291.73
2019-05-20T16:01:49.311Z,97319.38
2019-05-20T16:04:17.527Z,97315.73
2019-05-20T16:06:45.730Z,97304.69
2019-05-20T16:09:17.037Z,97308.83
2019-05-20T16:11:44.581Z,97290.70
2019-05-20T16:14:12.806Z,97271.83
2019-05-20T16:16:41.493Z,97280.18
2019-05-20T16:19:09.718Z,97270.26
2019-05-20T16:21:37.923Z,97270.61
2019-05-20T16:24:06.250Z,97270.89
2019-05-20T16:26:34.464Z,97270.64
2019-05-20T16:29:02.661Z,97273.70
2019-05-20T16:31:30.846Z,97269.11
2019-05-20T16:33:59.738Z,97269.65
2019-05-20T16:36:28.605Z,97274.36
2019-05-20T16:38:56.834Z,97262.27
2019-05-20T16:41:25.075Z,97253.20
2019-05-20T16:43:53.551Z,97252.77
2019-05-20T16:46:22.040Z,97260.55
2019-05-20T16:48:50.228Z,97262.48
2019-05-20T16:51:21.960Z,97263.82
2019-05-20T16:53:48.608Z,97267.10
2019-05-20T16:56:16.814Z,97264.91
2019-05-20T16:58:45.014Z,97269.80
2019-05-20T17:01:13.209Z,97270.09
2019-05-20T17:03:41.412Z,97274.37
2019-05-20T17:06:10.294Z,97277.97
2019-05-20T17:08:38.795Z,97283.27
2019-05-20T17:11:07.000Z,97283.84
2019-05-20T17:13:35.199Z,97295.87
2019-05-20T17:16:03.418Z,97295.22
2019-05-20T17:18:31.609Z,97294.87
2019-05-20T17:20:59.826Z,97298.09
2019-05-20T17:23:28.582Z,97283.82
2019-05-20T17:25:56.803Z,97277.19
2019-05-20T17:28:25.020Z,97284.23
2019-05-20T17:30:53.237Z,97282.08
2019-05-20T17:33:21.442Z,97282.28
2019-05-20T17:35:49.651Z,97279.66
2019-05-20T17:38:17.850Z,97281.03
2019-05-20T17:40:46.069Z,97298.06
2019-05-20T17:43:14.956Z,97292.05
2019-05-20T17:45:43.161Z,97289.60
2019-05-20T17:48:11.384Z,97288.73
2019-05-20T17:50:39.580Z,97282.50
2019-05-20T17:53:08.561Z,97288.95
2019-05-20T17:55:36.822Z,97308.01
2019-05-20T17:58:05.004Z,97316.89
2019-05-20T18:00:33.206Z,97352.38
2019-05-20T18:03:01.416Z,97324.41
2019-05-20T18:05:30.214Z,97313.12
2019-05-20T18:07:58.434Z,97282.85
2019-05-20T18:10:26.638Z,97283.55
2019-05-20T18:12:54.856Z,97294.13
2019-05-20T18:15:25.171Z,97295.72
2019-05-20T18:17:53.855Z,97298.28
2019-05-20T18:20:22.081Z,97322.85
2019-05-20T18:22:50.328Z,97338.89
2019-05-20T18:25:18.526Z,97327.23
2019-05-20T18:27:46.751Z,97305.56
2019-05-20T18:30:14.962Z,97310.73
2019-05-20T18:32:43.169Z,97294.34
2019-05-20T18:35:11.370Z,97315.14
2019-05-20T18:37:39.583Z,97347.27
2019-05-20T18:40:13.833Z,97404.52
2019-05-20T18:42:38.620Z,97317.28
2019-05-20T18:45:07.374Z,97287.47
2019-05-20T18:47:36.252Z,97271.08
2019-05-20T18:50:07.568Z,97282.84
2019-05-20T18:52:35.782Z,97286.20
2019-05-20T18:55:04.550Z,97274.74
2019-05-20T18:57:32.785Z,97279.33
2019-05-20T19:00:01.593Z,97275.88
2019-05-20T19:02:30.044Z,97281.98
2019-05-20T19:04:58.300Z,97303.45
2019-05-20T19:07:26.844Z,97320.44
2019-05-20T19:09:55.062Z,97316.63
2019-05-20T19:12:23.303Z,97301.59
2019-05-20T19:14:51.547Z,97305.28
2019-05-20T19:17:19.715Z,97278.62
2019-05-20T19:19:47.921Z,97270.70
2019-05-20T19:22:16.127Z,97283.06
2019-05-20T19:24:44.332Z,97270.17
2019-05-20T19:27:12.548Z,97262.02
2019-05-20T19:29:40.743Z,97285.20
2019-05-20T19:32:10.504Z,97301.07
2019-05-20T19:34:38.828Z,97300.23
2019-05-20T19:37:07.441Z,97315.73
2019-05-20T19:39:35.645Z,97318.80
2019-05-20T19:42:04.188Z,97315.56
2019-05-20T19:44:32.465Z,97322.86
2019-05-20T19:47:00.671Z,97309.22
2019-05-20T19:49:28.890Z,97301.31
2019-05-20T19:51:57.123Z,97290.70
2019-05-20T19:54:25.349Z,97315.44
2019-05-20T19:56:53.549Z,97337.95
2019-05-20T19:59:21.764Z,97331.14
2019-05-20T20:01:49.963Z,97338.67
2019-05-20T20:04:18.215Z,97339.50
2019-05-20T20:06:46.854Z,97324.60
2019-05-20T20:09:15.057Z,97316.79
2019-05-20T20:11:43.287Z,97319.13
2019-05-20T20:14:12.264Z,97329.34
2019-05-20T20:16:40.469Z,97326.91
2019-05-20T20:19:08.701Z,97323.14
2019-05-20T20:21:36.891Z,97322.30
2019-05-20T20:24:05.091Z,97298.53
2019-05-20T20:26:33.292Z,97283.69
2019-05-20T20:29:01.573Z,97276.85
2019-05-20T20:31:29.724Z,97269.97
2019-05-20T20:33:57.948Z,97279.20
2019-05-20T20:36:26.314Z,97287.16
2019-05-20T20:38:54.532Z,97285.12
2019-05-20T20:41:22.746Z,97284.09
2019-05-20T20:43:50.946Z,97261.39
2019-05-20T20:46:19.146Z,97246.54
2019-05-20T20:48:47.353Z,97262.60
2019-05-20T20:51:16.123Z,97292.72
2019-05-20T20:53:44.339Z,97311.61
2019-05-20T20:56:24.822Z,97308.20
2019-05-20T20:58:43.152Z,97301.03
2019-05-20T21:01:11.358Z,97302.09
2019-05-20T21:03:39.600Z,97299.16
2019-05-20T21:06:07.798Z,97305.70
2019-05-20T21:08:36.010Z,97288.22
2019-05-20T21:11:04.217Z,97281.68
2019-05-20T21:13:32.431Z,97287.20
2019-05-20T21:16:01.112Z,97278.66
2019-05-20T21:18:29.315Z,97281.75
2019-05-20T21:20:57.516Z,97290.34
2019-05-20T21:23:25.961Z,97281.59
2019-05-20T21:25:54.165Z,97281.15
2019-05-20T21:28:22.376Z,97288.53
2019-05-20T21:30:50.597Z,97292.39
2019-05-20T21:33:18.862Z,97287.30
2019-05-20T21:35:47.058Z,97300.73
2019-05-20T21:38:15.277Z,97306.23
2019-05-20T21:40:43.475Z,97305.17
2019-05-20T21:43:11.686Z,97298.91
2019-05-20T21:45:39.893Z,97294.23
2019-05-20T21:48:08.377Z,97293.98
2019-05-20T21:50:36.590Z,97297.54
2019-05-20T21:53:04.794Z,97303.30
2019-05-20T21:55:33.270Z,97299.73
2019-05-20T21:58:01.478Z,97301.94
2019-05-20T22:00:43.752Z,97299.94
2019-05-20T22:03:24.002Z,97300.14
2019-05-20T22:05:42.250Z,97303.95
2019-05-20T22:08:11.023Z,97309.66
2019-05-20T22:10:39.233Z,97306.65
2019-05-20T22:13:07.436Z,97317.58
2019-05-20T22:15:35.654Z,97300.55
2019-05-20T22:18:04.196Z,97301.31
2019-05-20T22:20:32.971Z,97299.84
2019-05-20T22:23:14.675Z,97290.77
2019-05-20T22:25:42.886Z,97301.20
2019-05-20T22:28:12.878Z,97297.05
2019-05-20T22:30:41.843Z,97288.52
2019-05-20T22:33:09.998Z,97290.90
2019-05-20T22:35:38.221Z,97297.44
2019-05-20T22:38:06.416Z,97286.81
2019-05-20T22:40:34.627Z,97292.16
2019-05-20T22:43:02.835Z,97298.69
2019-05-20T22:45:31.632Z,97289.90
2019-05-20T22:47:59.831Z,97285.98
2019-05-20T22:50:28.044Z,97280.03
2019-05-20T22:52:56.246Z,97279.05
2019-05-20T22:55:24.457Z,97270.55
2019-05-20T22:57:52.659Z,97275.36
2019-05-20T23:00:20.872Z,97272.97
2019-05-20T23:02:49.145Z,97268.06
2019-05-20T23:05:17.354Z,97264.72
2019-05-20T23:07:45.559Z,97272.14
2019-05-20T23:10:13.775Z,97276.08
2019-05-20T23:12:42.301Z,97262.13
2019-05-20T23:15:10.955Z,97263.88
2019-05-20T23:17:39.154Z,97266.08
2019-05-20T23:20:07.708Z,97268.23
2019-05-20T23:22:35.907Z,97264.72
2019-05-20T23:25:04.658Z,97270.17
2019-05-20T23:27:32.862Z,97262.24
2019-05-20T23:30:01.074Z,97258.91
2019-05-20T23:32:29.280Z,97252.97
2019-05-20T23:34:57.497Z,97263.67
2019-05-20T23:37:25.700Z,97247.81
2019-05-20T23:39:53.909Z,97221.28
2019-05-20T23:42:22.114Z,97230.29
2019-05-20T23:44:50.990Z,97227.56
2019-05-20T23:47:19.187Z,97240.05
2019-05-20T23:49:47.395Z,97252.59
2019-05-20T23:55:57.264Z,97265.69
2019-05-20T23:58:26.136Z,97270.66
